createdAt,value
2022-09-10T00:01:39.882Z,18.27
2022-09-10T00:03:41.721Z,18.34
2022-09-10T00:05:44.888Z,18.34
2022-09-10T00:07:46.466Z,18.40
2022-09-10T00:09:48.028Z,18.45
2022-09-10T00:11:49.850Z,18.45
2022-09-10T00:13:51.443Z,18.39
2022-09-10T00:15:54.547Z,18.37
2022-09-10T00:17:56.116Z,18.31
2022-09-10T00:19:57.786Z,18.36
2022-09-10T00:21:59.298Z,18.33
2022-09-10T00:24:02.323Z,18.29
2022-09-10T00:26:10.895Z,18.30
2022-09-10T00:28:12.523Z,18.26
2022-09-10T00:30:14.112Z,18.30
2022-09-10T00:32:17.161Z,18.37
2022-09-10T00:34:18.682Z,18.31
2022-09-10T00:36:22.918Z,18.29
2022-09-10T00:38:24.903Z,18.31
2022-09-10T00:40:26.464Z,18.30
2022-09-10T00:42:27.947Z,18.40
2022-09-10T00:44:56.472Z,18.38
2022-09-10T00:46:58.037Z,18.35
2022-09-10T00:49:02.924Z,18.37
2022-09-10T00:51:05.890Z,18.43
2022-09-10T00:53:12.350Z,18.37
2022-09-10T00:55:14.741Z,18.28
2022-09-10T00:57:20.123Z,18.29
2022-09-10T00:59:25.148Z,18.32
2022-09-10T01:01:26.627Z,18.32
2022-09-10T01:03:29.279Z,18.32
2022-09-10T01:05:32.854Z,18.33
2022-09-10T01:07:34.932Z,18.34
2022-09-10T01:09:39.452Z,18.31
2022-09-10T01:11:54.567Z,18.26
2022-09-10T01:14:12.303Z,18.24
2022-09-10T01:16:21.730Z,18.25
2022-09-10T01:18:33.254Z,18.31
2022-09-10T01:20:51.107Z,18.40
2022-09-10T01:23:34.375Z,18.30
2022-09-10T01:25:43.145Z,18.19
2022-09-10T01:27:49.758Z,18.21
2022-09-10T01:29:55.294Z,18.30
2022-09-10T01:32:04.367Z,18.27
2022-09-10T01:34:13.426Z,18.21
2022-09-10T01:36:21.164Z,18.23
2022-09-10T01:38:27.175Z,18.28
2022-09-10T01:40:29.163Z,18.24
2022-09-10T01:42:31.593Z,18.22
2022-09-10T01:44:45.676Z,18.28
2022-09-10T01:46:58.864Z,18.27
2022-09-10T01:49:11.585Z,18.28
2022-09-10T01:51:23.613Z,18.30
2022-09-10T01:53:44.257Z,18.30
2022-09-10T01:55:52.109Z,18.29
2022-09-10T01:57:59.732Z,18.24
2022-09-10T02:00:07.809Z,18.19
2022-09-10T02:02:17.399Z,18.16
2022-09-10T02:04:21.378Z,18.13
2022-09-10T02:06:26.084Z,18.13
2022-09-10T02:08:31.429Z,18.16
2022-09-10T02:10:32.996Z,18.18
2022-09-10T02:12:35.372Z,18.18
2022-09-10T02:14:36.923Z,18.15
2022-09-10T02:16:45.987Z,18.13
2022-09-10T02:18:47.811Z,18.12
2022-09-10T02:20:52.075Z,18.17
2022-09-10T02:22:58.364Z,18.14
2022-09-10T02:24:59.894Z,18.16
2022-09-10T02:27:01.472Z,18.22
2022-09-10T02:29:03.166Z,18.26
2022-09-10T02:31:04.793Z,18.28
2022-09-10T02:33:09.667Z,18.26
2022-09-10T02:35:11.214Z,18.23
2022-09-10T02:37:12.708Z,18.24
2022-09-10T02:39:14.389Z,18.20
2022-09-10T02:41:18.650Z,18.27
2022-09-10T02:43:20.092Z,18.29
2022-09-10T02:45:21.618Z,18.29
2022-09-10T02:47:23.117Z,18.26
2022-09-10T02:49:25.933Z,18.30
2022-09-10T02:51:27.415Z,18.29
2022-09-10T02:53:28.899Z,18.29
2022-09-10T02:55:30.548Z,18.30
2022-09-10T02:57:32.102Z,18.24
2022-09-10T02:59:33.738Z,18.28
2022-09-10T03:01:35.313Z,18.29
2022-09-10T03:03:37.213Z,18.30
2022-09-10T03:05:40.518Z,18.25
2022-09-10T03:07:42.281Z,18.28
2022-09-10T03:09:43.824Z,18.29
2022-09-10T03:11:45.432Z,18.30
2022-09-10T03:13:47.037Z,18.28
2022-09-10T03:15:48.517Z,18.30
2022-09-10T03:17:49.926Z,18.33
2022-09-10T03:19:51.588Z,18.34
2022-09-10T03:21:54.466Z,18.38
2022-09-10T03:23:57.069Z,18.37
2022-09-10T03:25:58.798Z,18.33
2022-09-10T03:28:00.325Z,18.33
2022-09-10T03:30:01.958Z,18.39
2022-09-10T03:32:03.498Z,18.23
2022-09-10T03:34:05.345Z,18.30
2022-09-10T03:36:07.359Z,18.30
2022-09-10T03:38:10.246Z,18.26
2022-09-10T03:40:11.780Z,18.18
2022-09-10T03:42:13.249Z,18.24
2022-09-10T03:44:15.014Z,18.28
2022-09-10T03:46:16.512Z,18.22
2022-09-10T03:48:19.455Z,18.33
2022-09-10T03:50:21.026Z,18.41
2022-09-10T03:52:22.472Z,18.39
2022-09-10T03:54:25.318Z,18.35
2022-09-10T03:56:27.677Z,18.30
2022-09-10T03:58:29.210Z,18.35
2022-09-10T04:00:30.705Z,18.36
2022-09-10T04:02:32.173Z,18.39
2022-09-10T04:04:33.753Z,18.32
2022-09-10T04:06:35.376Z,18.31
2022-09-10T04:08:36.878Z,18.40
2022-09-10T04:10:39.896Z,18.42
2022-09-10T04:12:41.350Z,18.44
2022-09-10T04:14:42.841Z,18.44
2022-09-10T04:16:44.412Z,18.44
2022-09-10T04:18:46.111Z,18.36
2022-09-10T04:20:47.635Z,18.39
2022-09-10T04:22:49.589Z,18.44
2022-09-10T04:24:51.091Z,18.43
2022-09-10T04:26:53.879Z,18.46
2022-09-10T04:28:55.632Z,18.43
2022-09-10T04:30:57.106Z,18.38
2022-09-10T04:32:58.565Z,18.40
2022-09-10T04:35:00.079Z,18.41
2022-09-10T04:37:01.563Z,18.41
2022-09-10T04:39:03.112Z,18.35
2022-09-10T04:41:04.682Z,18.31
2022-09-10T04:43:07.513Z,18.30
2022-09-10T04:45:09.701Z,18.33
2022-09-10T04:47:11.356Z,18.23
2022-09-10T04:49:14.872Z,18.27
2022-09-10T04:51:17.561Z,18.29
2022-09-10T04:53:20.194Z,18.30
2022-09-10T04:55:21.737Z,18.30
2022-09-10T04:57:23.733Z,18.30
2022-09-10T04:59:26.736Z,18.33
2022-09-10T05:01:28.306Z,18.35
2022-09-10T05:03:29.895Z,18.30
2022-09-10T05:05:31.729Z,18.32
2022-09-10T05:07:33.210Z,18.18
2022-09-10T05:09:34.645Z,18.21
2022-09-10T05:11:36.182Z,18.19
2022-09-10T05:13:37.666Z,18.09
2022-09-10T05:15:40.564Z,18.04
2022-09-10T05:17:42.048Z,18.03
2022-09-10T05:19:43.734Z,17.99
2022-09-10T05:21:45.226Z,18.00
2022-09-10T05:23:47.194Z,17.99
2022-09-10T05:25:48.723Z,17.89
2022-09-10T05:27:50.620Z,17.98
2022-09-10T05:29:52.193Z,17.94
2022-09-10T05:31:55.108Z,17.89
2022-09-10T05:33:56.751Z,17.89
2022-09-10T05:36:00.785Z,17.91
2022-09-10T05:38:02.254Z,17.90
2022-09-10T05:40:04.917Z,17.87
2022-09-10T05:42:06.554Z,17.90
2022-09-10T05:44:08.042Z,17.87
2022-09-10T05:46:09.524Z,17.87
2022-09-10T05:48:12.534Z,17.88
2022-09-10T05:50:14.189Z,17.88
2022-09-10T05:52:15.991Z,17.87
2022-09-10T05:54:20.320Z,17.93
2022-09-10T05:56:21.802Z,17.93
2022-09-10T05:58:23.332Z,17.86
2022-09-10T06:00:24.883Z,17.86
2022-09-10T06:02:26.627Z,17.87
2022-09-10T06:04:29.539Z,17.84
2022-09-10T06:06:31.293Z,17.82
2022-09-10T06:08:32.977Z,17.82
2022-09-10T06:10:34.751Z,17.87
2022-09-10T06:12:37.667Z,17.85
2022-09-10T06:14:39.103Z,17.88
2022-09-10T06:16:40.812Z,17.88
2022-09-10T06:18:42.695Z,17.85
2022-09-10T06:20:46.437Z,17.86
2022-09-10T06:22:47.889Z,17.86
2022-09-10T06:24:50.691Z,17.89
2022-09-10T06:26:52.189Z,17.91
2022-09-10T06:28:53.663Z,17.93
2022-09-10T06:30:55.487Z,17.91
2022-09-10T06:32:56.958Z,17.88
2022-09-10T06:34:58.446Z,17.94
2022-09-10T06:37:01.272Z,17.95
2022-09-10T06:39:02.821Z,18.01
2022-09-10T06:41:06.170Z,18.02
2022-09-10T06:43:07.746Z,18.03
2022-09-10T06:45:09.929Z,18.04
2022-09-10T06:47:50.938Z,18.00
2022-09-10T06:49:33.015Z,17.92
2022-09-10T06:51:34.484Z,18.04
2022-09-10T06:53:37.596Z,17.97
2022-09-10T06:55:39.350Z,18.00
2022-09-10T06:57:40.846Z,18.11
2022-09-10T06:59:42.515Z,18.03
2022-09-10T07:01:44.346Z,18.04
2022-09-10T07:03:46.813Z,17.93
2022-09-10T07:05:48.719Z,18.00
2022-09-10T07:07:50.214Z,18.01
2022-09-10T07:09:53.090Z,18.03
2022-09-10T07:11:54.611Z,18.00
2022-09-10T07:13:56.152Z,18.02
2022-09-10T07:15:58.236Z,18.07
2022-09-10T07:18:00.194Z,18.02
2022-09-10T07:20:02.146Z,18.13
2022-09-10T07:22:04.009Z,18.13
2022-09-10T07:24:05.785Z,18.10
2022-09-10T07:26:11.096Z,18.20
2022-09-10T07:28:14.633Z,18.23
2022-09-10T07:30:20.098Z,18.16
2022-09-10T07:32:21.640Z,18.15
2022-09-10T07:34:23.214Z,18.17
2022-09-10T07:36:25.304Z,18.07
2022-09-10T07:38:26.937Z,18.13
2022-09-10T07:40:28.386Z,18.21
2022-09-10T07:42:31.576Z,18.21
2022-09-10T07:44:33.173Z,18.22
2022-09-10T07:46:34.724Z,18.27
2022-09-10T07:48:36.271Z,18.26
2022-09-10T07:50:37.793Z,18.33
2022-09-10T07:52:39.307Z,18.27
2022-09-10T07:54:40.831Z,18.33
2022-09-10T07:56:42.380Z,18.24
2022-09-10T07:58:45.241Z,18.24
2022-09-10T08:00:46.717Z,18.33
2022-09-10T08:02:48.360Z,18.29
2022-09-10T08:04:49.846Z,18.32
2022-09-10T08:06:51.361Z,18.33
2022-09-10T08:08:52.962Z,18.35
2022-09-10T08:10:54.467Z,18.42
2022-09-10T08:12:56.007Z,18.50
2022-09-10T08:14:59.048Z,18.47
2022-09-10T08:17:00.725Z,18.33
2022-09-10T08:19:02.304Z,18.45
2022-09-10T08:21:04.836Z,18.50
2022-09-10T08:23:06.929Z,18.57
2022-09-10T08:25:08.709Z,18.60
2022-09-10T08:27:10.294Z,18.64
2022-09-10T08:29:11.779Z,18.66
2022-09-10T08:31:14.801Z,18.64
2022-09-10T08:33:16.375Z,18.63
2022-09-10T08:35:18.101Z,18.63
2022-09-10T08:37:19.554Z,18.63
2022-09-10T08:39:21.275Z,18.56
2022-09-10T08:41:32.338Z,18.63
2022-09-10T08:43:40.580Z,18.68
2022-09-10T08:45:50.463Z,18.63
2022-09-10T08:47:58.624Z,18.62
2022-09-10T08:50:06.127Z,18.70
2022-09-10T08:52:16.631Z,18.70
2022-09-10T08:54:23.856Z,18.77
2022-09-10T08:56:26.940Z,18.84
2022-09-10T08:58:38.512Z,18.88
2022-09-10T09:00:42.686Z,18.85
2022-09-10T09:02:54.090Z,18.87
2022-09-10T09:05:00.768Z,18.96
2022-09-10T09:07:09.560Z,18.87
2022-09-10T09:09:15.623Z,18.86
2022-09-10T09:11:25.959Z,18.85
2022-09-10T09:13:59.012Z,18.91
2022-09-10T09:16:12.853Z,18.86
2022-09-10T09:18:23.343Z,18.90
2022-09-10T09:20:41.406Z,18.96
2022-09-10T09:22:50.754Z,19.01
2022-09-10T09:24:56.386Z,18.99
2022-09-10T09:27:04.784Z,19.04
2022-09-10T09:29:12.675Z,19.06
2022-09-10T09:31:16.658Z,19.00
2022-09-10T09:33:21.403Z,19.04
2022-09-10T09:35:32.535Z,19.05
2022-09-10T09:37:41.976Z,19.15
2022-09-10T09:39:50.570Z,19.16
2022-09-10T09:42:01.097Z,19.16
2022-09-10T09:44:11.849Z,19.20
2022-09-10T09:46:15.332Z,19.23
2022-09-10T09:48:18.555Z,19.24
2022-09-10T09:50:20.417Z,19.35
2022-09-10T09:52:25.200Z,19.34
2022-09-10T09:55:12.709Z,19.37
2022-09-10T09:56:53.669Z,19.46
2022-09-10T09:58:55.194Z,19.44
2022-09-10T10:01:10.840Z,19.55
2022-09-10T10:03:17.892Z,19.57
2022-09-10T10:05:23.965Z,19.50
2022-09-10T10:07:29.491Z,19.55
2022-09-10T10:09:33.148Z,19.63
2022-09-10T10:11:52.248Z,19.67
2022-09-10T10:14:10.605Z,19.54
2022-09-10T10:16:17.704Z,19.67
2022-09-10T10:18:30.062Z,19.73
2022-09-10T10:20:38.878Z,19.64
2022-09-10T10:22:42.872Z,19.71
2022-09-10T10:24:46.142Z,19.72
2022-09-10T10:26:48.066Z,19.59
2022-09-10T10:28:52.399Z,19.57
2022-09-10T10:30:55.932Z,19.51
2022-09-10T10:32:59.030Z,19.62
2022-09-10T10:35:25.264Z,19.72
2022-09-10T10:37:37.291Z,19.75
2022-09-10T10:39:59.071Z,19.77
2022-09-10T10:42:09.304Z,19.65
2022-09-10T10:44:42.754Z,19.73
2022-09-10T10:46:53.022Z,19.74
2022-09-10T10:49:04.540Z,19.79
2022-09-10T10:51:15.316Z,19.78
2022-09-10T10:53:29.955Z,19.77
2022-09-10T10:55:39.834Z,19.76
2022-09-10T10:57:54.641Z,19.72
2022-09-10T11:00:02.578Z,19.75
2022-09-10T11:02:15.154Z,19.74
2022-09-10T11:04:27.944Z,19.67
2022-09-10T11:06:35.037Z,19.67
2022-09-10T11:08:41.281Z,19.78
2022-09-10T11:10:49.126Z,19.71
2022-09-10T11:13:00.244Z,19.64
2022-09-10T11:15:14.692Z,19.64
2022-09-10T11:17:21.455Z,19.67
2022-09-10T11:19:29.635Z,19.57
2022-09-10T11:21:37.244Z,19.58
2022-09-10T11:23:45.315Z,19.60
2022-09-10T11:25:55.251Z,19.63
2022-09-10T11:28:01.467Z,19.67
2022-09-10T11:30:06.433Z,19.67
2022-09-10T11:32:18.571Z,19.65
2022-09-10T11:34:28.069Z,19.56
2022-09-10T11:36:34.833Z,19.57
2022-09-10T11:38:47.363Z,19.58
2022-09-10T11:40:59.081Z,19.62
2022-09-10T11:43:05.609Z,19.62
2022-09-10T11:45:18.705Z,19.66
2022-09-10T11:47:26.703Z,19.57
2022-09-10T11:49:36.392Z,19.62
2022-09-10T11:51:39.886Z,19.76
2022-09-10T11:53:41.743Z,19.71
2022-09-10T11:56:05.713Z,19.73
2022-09-10T11:58:17.389Z,19.88
2022-09-10T12:00:20.165Z,19.90
2022-09-10T12:02:43.894Z,19.94
2022-09-10T12:04:55.809Z,20.01
2022-09-10T12:07:11.129Z,20.08
2022-09-10T12:09:17.933Z,19.95
2022-09-10T12:11:28.050Z,20.06
2022-09-10T12:13:30.209Z,20.06
2022-09-10T12:15:31.735Z,19.99
2022-09-10T12:17:37.612Z,20.01
2022-09-10T12:19:44.873Z,19.98
2022-09-10T12:21:50.790Z,19.99
2022-09-10T12:23:52.393Z,20.03
2022-09-10T12:25:59.323Z,20.06
2022-09-10T12:28:04.521Z,20.08
2022-09-10T12:30:39.364Z,20.15
2022-09-10T12:32:40.927Z,20.19
2022-09-10T12:34:42.489Z,20.27
2022-09-10T12:37:21.696Z,20.35
2022-09-10T12:39:24.920Z,20.41
2022-09-10T12:41:55.793Z,20.43
2022-09-10T12:43:59.521Z,20.47
2022-09-10T12:46:04.576Z,20.55
2022-09-10T12:48:11.978Z,20.59
2022-09-10T12:50:31.011Z,20.70
2022-09-10T12:52:44.866Z,20.75
2022-09-10T12:54:55.100Z,20.84
2022-09-10T12:57:23.733Z,20.94
2022-09-10T13:00:02.141Z,21.00
2022-09-10T13:02:18.722Z,21.00
2022-09-10T13:04:27.412Z,21.01
2022-09-10T13:06:38.640Z,21.08
2022-09-10T13:08:43.603Z,21.16
2022-09-10T13:10:48.371Z,21.17
2022-09-10T13:12:54.050Z,21.22
2022-09-10T13:14:57.660Z,21.25
2022-09-10T13:16:59.258Z,21.25
2022-09-10T13:19:49.352Z,21.34
2022-09-10T13:21:52.713Z,21.39
2022-09-10T13:23:55.244Z,21.45
2022-09-10T13:26:48.056Z,21.52
2022-09-10T13:29:04.041Z,21.55
2022-09-10T13:31:13.271Z,21.66
2022-09-10T13:33:21.330Z,21.71
2022-09-10T13:36:04.344Z,21.80
2022-09-10T13:38:29.183Z,21.86
2022-09-10T13:40:51.380Z,21.91
2022-09-10T13:43:10.570Z,21.90
2022-09-10T13:45:21.781Z,21.90
2022-09-10T13:47:31.777Z,21.85
2022-09-10T13:49:42.466Z,21.88
2022-09-10T13:51:50.742Z,21.96
2022-09-10T13:53:53.571Z,22.00
2022-09-10T13:55:58.450Z,22.08
2022-09-10T13:58:08.134Z,22.06
2022-09-10T14:00:20.453Z,22.14
2022-09-10T14:02:41.496Z,22.40
2022-09-10T14:04:45.187Z,22.34
2022-09-10T14:06:46.889Z,22.26
2022-09-10T14:08:52.860Z,22.14
2022-09-10T14:10:59.272Z,22.30
2022-09-10T14:13:01.420Z,22.10
2022-09-10T14:15:14.215Z,21.98
2022-09-10T14:17:22.800Z,21.81
2022-09-10T14:19:30.666Z,21.67
2022-09-10T14:21:33.055Z,21.80
2022-09-10T14:23:35.084Z,21.86
2022-09-10T14:25:38.950Z,21.85
2022-09-10T14:27:41.249Z,21.83
2022-09-10T14:29:42.992Z,21.71
2022-09-10T14:31:44.507Z,21.63
2022-09-10T14:33:46.200Z,21.55
2022-09-10T14:35:49.531Z,21.40
2022-09-10T14:37:51.085Z,21.23
2022-09-10T14:39:52.755Z,21.39
2022-09-10T14:42:22.664Z,21.64
2022-09-10T14:44:28.278Z,21.59
2022-09-10T14:46:48.467Z,21.62
2022-09-10T14:49:03.361Z,21.53
2022-09-10T14:51:18.078Z,21.45
2022-09-10T14:53:19.563Z,21.48
2022-09-10T14:55:21.727Z,21.48
2022-09-10T14:57:23.416Z,21.54
2022-09-10T14:59:29.465Z,21.62
2022-09-10T15:01:31.252Z,21.60
2022-09-10T15:03:37.581Z,21.65
2022-09-10T15:05:39.322Z,21.76
2022-09-10T15:07:42.262Z,21.81
2022-09-10T15:09:43.987Z,21.83
2022-09-10T15:11:51.505Z,21.96
2022-09-10T15:13:53.985Z,21.91
2022-09-10T15:15:55.612Z,21.86
2022-09-10T15:17:57.094Z,21.62
2022-09-10T15:19:58.991Z,21.60
2022-09-10T15:22:00.514Z,21.73
2022-09-10T15:24:03.892Z,21.72
2022-09-10T15:26:06.917Z,21.75
2022-09-10T15:28:08.454Z,21.81
2022-09-10T15:30:10.540Z,21.86
2022-09-10T15:32:12.106Z,21.91
2022-09-10T15:34:13.642Z,21.96
2022-09-10T15:36:15.203Z,21.90
2022-09-10T15:38:17.703Z,21.82
2022-09-10T15:40:20.711Z,21.86
2022-09-10T15:42:22.272Z,21.86
2022-09-10T15:44:25.173Z,21.92
2022-09-10T15:46:26.944Z,21.87
2022-09-10T15:48:30.292Z,21.78
2022-09-10T15:50:32.204Z,21.78
2022-09-10T15:52:33.894Z,21.79
2022-09-10T15:54:35.514Z,21.71
2022-09-10T15:56:39.499Z,21.73
2022-09-10T15:58:42.001Z,21.71
2022-09-10T16:00:43.808Z,21.91
2022-09-10T16:02:52.802Z,21.98
2022-09-10T16:04:54.521Z,21.90
2022-09-10T16:06:56.046Z,21.94
2022-09-10T16:08:59.942Z,22.15
2022-09-10T16:11:07.116Z,22.09
2022-09-10T16:13:10.058Z,22.09
2022-09-10T16:15:11.636Z,22.00
2022-09-10T16:17:13.331Z,21.95
2022-09-10T16:19:14.976Z,21.91
2022-09-10T16:21:18.860Z,21.85
2022-09-10T16:23:20.555Z,21.86
2022-09-10T16:25:22.086Z,21.90
2022-09-10T16:27:24.042Z,21.80
2022-09-10T16:29:27.204Z,21.74
2022-09-10T16:31:30.763Z,21.78
2022-09-10T16:33:32.347Z,21.76
2022-09-10T16:35:34.682Z,21.69
2022-09-10T16:37:36.222Z,21.66
2022-09-10T16:39:37.776Z,21.63
2022-09-10T16:41:41.189Z,21.53
2022-09-10T16:43:42.812Z,21.50
2022-09-10T16:45:50.737Z,21.54
2022-09-10T16:47:53.541Z,21.53
2022-09-10T16:49:55.042Z,21.39
2022-09-10T16:51:56.898Z,21.38
2022-09-10T16:54:00.483Z,21.40
2022-09-10T16:56:04.781Z,21.32
2022-09-10T16:58:06.294Z,21.17
2022-09-10T17:00:08.862Z,21.17
2022-09-10T17:02:11.759Z,21.02
2022-09-10T17:04:18.529Z,20.93
2022-09-10T17:06:22.438Z,21.06
2022-09-10T17:08:24.213Z,21.13
2022-09-10T17:10:25.748Z,21.15
2022-09-10T17:12:27.414Z,21.19
2022-09-10T17:14:28.927Z,21.18
2022-09-10T17:16:32.537Z,21.15
2022-09-10T17:18:35.524Z,21.11
2022-09-10T17:20:37.471Z,21.11
2022-09-10T17:22:39.293Z,21.07
2022-09-10T17:24:40.849Z,20.84
2022-09-10T17:26:42.529Z,20.87
2022-09-10T17:28:44.109Z,20.87
2022-09-10T17:30:45.664Z,20.84
2022-09-10T17:32:47.384Z,20.83
2022-09-10T17:34:50.363Z,20.92
2022-09-10T17:36:52.403Z,20.80
2022-09-10T17:40:58.917Z,20.82
2022-09-10T17:43:00.428Z,20.77
2022-09-10T17:45:01.958Z,20.71
2022-09-10T17:47:03.672Z,20.79
2022-09-10T17:49:06.009Z,20.78
2022-09-10T17:51:12.815Z,20.78
2022-09-10T17:53:15.136Z,20.82
2022-09-10T17:55:17.022Z,20.76
2022-09-10T17:57:18.587Z,20.73
2022-09-10T17:59:20.206Z,20.74
2022-09-10T18:01:23.858Z,20.72
2022-09-10T18:03:25.501Z,20.68
2022-09-10T18:05:27.132Z,20.60
2022-09-10T18:07:30.085Z,20.56
2022-09-10T18:09:31.753Z,20.49
2022-09-10T18:11:38.124Z,20.47
2022-09-10T18:13:41.414Z,20.41
2022-09-10T18:15:43.043Z,20.45
2022-09-10T18:17:44.652Z,20.47
2022-09-10T18:19:46.158Z,20.39
2022-09-10T18:21:48.433Z,20.39
2022-09-10T18:23:52.677Z,20.31
2022-09-10T18:25:54.179Z,20.34
2022-09-10T18:27:56.075Z,20.34
2022-09-10T18:29:57.838Z,20.33
2022-09-10T18:31:59.888Z,20.33
2022-09-10T18:34:02.262Z,20.35
2022-09-10T18:36:11.145Z,20.34
2022-09-10T18:38:12.662Z,20.22
2022-09-10T18:40:15.939Z,20.12
2022-09-10T18:42:17.767Z,20.08
2022-09-10T18:44:21.909Z,20.09
2022-09-10T18:46:24.641Z,20.06
2022-09-10T18:48:26.356Z,20.13
2022-09-10T18:50:28.014Z,20.12
2022-09-10T18:52:29.606Z,20.11
2022-09-10T18:54:31.101Z,20.04
2022-09-10T18:56:34.443Z,20.05
2022-09-10T18:58:35.937Z,20.02
2022-09-10T19:00:37.489Z,20.06
2022-09-10T19:02:39.248Z,20.00
2022-09-10T19:05:00.385Z,20.02
2022-09-10T19:07:02.996Z,20.01
2022-09-10T19:09:07.486Z,20.05
2022-09-10T19:11:08.994Z,20.07
2022-09-10T19:13:12.065Z,20.05
2022-09-10T19:15:13.770Z,20.07
2022-09-10T19:17:15.395Z,20.11
2022-09-10T19:19:18.883Z,20.17
2022-09-10T19:21:21.430Z,20.22
2022-09-10T19:23:23.670Z,20.22
2022-09-10T19:25:25.201Z,20.23
2022-09-10T19:27:26.842Z,20.23
2022-09-10T19:29:29.788Z,20.19
2022-09-10T19:31:33.756Z,20.18
2022-09-10T19:33:35.566Z,20.16
2022-09-10T19:35:37.095Z,20.17
2022-09-10T19:37:38.804Z,20.14
2022-09-10T19:39:40.498Z,20.17
2022-09-10T19:41:43.730Z,20.15
2022-09-10T19:43:46.934Z,20.14
2022-09-10T19:45:54.576Z,20.12
2022-09-10T19:47:56.143Z,20.11
2022-09-10T19:49:57.663Z,20.11
2022-09-10T19:51:59.547Z,20.09
2022-09-10T19:54:01.437Z,20.07
2022-09-10T19:56:04.764Z,20.04
2022-09-10T19:58:06.778Z,20.00
2022-09-10T20:00:17.194Z,19.98
2022-09-10T20:02:32.909Z,19.98
2022-09-10T20:04:35.202Z,19.97
2022-09-10T20:06:37.384Z,19.94
2022-09-10T20:08:42.000Z,19.97
2022-09-10T20:10:49.453Z,19.94
2022-09-10T20:12:50.959Z,19.91
2022-09-10T20:14:52.587Z,19.89
2022-09-10T20:16:54.193Z,19.89
2022-09-10T20:18:57.086Z,19.89
2022-09-10T20:21:08.611Z,19.92
2022-09-10T20:23:10.194Z,19.90
2022-09-10T20:25:11.828Z,19.94
2022-09-10T20:27:21.081Z,19.92
2022-09-10T20:29:22.733Z,19.95
2022-09-10T20:31:26.156Z,19.95
2022-09-10T20:33:27.819Z,19.97
2022-09-10T20:35:30.887Z,19.92
2022-09-10T20:37:32.456Z,19.97
2022-09-10T20:39:34.134Z,20.01
2022-09-10T20:41:35.701Z,20.03
2022-09-10T20:43:37.672Z,20.02
2022-09-10T20:45:42.570Z,19.81
2022-09-10T20:47:44.204Z,19.84
2022-09-10T20:49:45.719Z,19.83
2022-09-10T20:51:48.664Z,19.80
2022-09-10T20:53:50.220Z,19.82
2022-09-10T20:55:51.904Z,19.79
2022-09-10T20:57:53.492Z,19.82
2022-09-10T20:59:55.035Z,19.76
2022-09-10T21:01:56.897Z,19.79
2022-09-10T21:04:00.373Z,19.70
2022-09-10T21:06:02.003Z,19.68
2022-09-10T21:08:05.624Z,19.62
2022-09-10T21:10:08.050Z,19.56
2022-09-10T21:12:09.603Z,19.56
2022-09-10T21:14:11.784Z,19.57
2022-09-10T21:16:15.256Z,19.60
2022-09-10T21:18:17.141Z,19.61
2022-09-10T21:20:18.755Z,19.65
2022-09-10T21:22:20.316Z,19.64
2022-09-10T21:24:23.189Z,19.60
2022-09-10T21:26:26.463Z,19.63
2022-09-10T21:28:28.006Z,19.64
2022-09-10T21:30:29.508Z,19.58
2022-09-10T21:32:31.042Z,19.62
2022-09-10T21:34:32.760Z,19.60
2022-09-10T21:36:36.008Z,19.61
2022-09-10T21:38:38.262Z,19.63
2022-09-10T21:40:41.217Z,19.52
2022-09-10T21:42:43.959Z,19.50
2022-09-10T21:44:45.485Z,19.46
2022-09-10T21:46:48.260Z,19.51
2022-09-10T21:48:50.160Z,19.48
2022-09-10T21:50:57.456Z,19.41
2022-09-10T21:52:59.036Z,19.47
2022-09-10T21:55:00.514Z,19.53
2022-09-10T21:57:03.749Z,19.53
2022-09-10T21:59:05.374Z,19.57
2022-09-10T22:01:11.242Z,19.61
2022-09-10T22:03:12.737Z,19.63
2022-09-10T22:05:14.524Z,19.65
2022-09-10T22:07:16.077Z,19.59
2022-09-10T22:09:17.579Z,19.61
2022-09-10T22:11:20.868Z,19.56
2022-09-10T22:13:23.898Z,19.54
2022-09-10T22:15:25.488Z,19.57
2022-09-10T22:17:27.190Z,19.50
2022-09-10T22:19:28.882Z,19.43
2022-09-10T22:21:30.481Z,19.52
2022-09-10T22:23:34.127Z,19.48
2022-09-10T22:25:35.600Z,19.49
2022-09-10T22:27:37.117Z,19.50
2022-09-10T22:29:40.072Z,19.43
2022-09-10T22:31:41.607Z,19.47
2022-09-10T22:33:45.400Z,19.33
2022-09-10T22:35:46.946Z,19.40
2022-09-10T22:37:48.439Z,19.39
2022-09-10T22:39:49.968Z,19.41
2022-09-10T22:41:51.595Z,19.36
2022-09-10T22:43:53.273Z,19.38
2022-09-10T22:45:56.123Z,19.45
2022-09-10T22:47:57.697Z,19.45
2022-09-10T22:49:59.227Z,19.41
2022-09-10T22:52:00.823Z,19.46
2022-09-10T22:54:03.703Z,19.39
2022-09-10T22:56:05.629Z,19.40
2022-09-10T22:58:07.140Z,19.46
2022-09-10T23:00:09.733Z,19.43
2022-09-10T23:02:12.632Z,19.43
2022-09-10T23:04:14.582Z,19.30
2022-09-10T23:06:18.040Z,19.35
2022-09-10T23:08:19.517Z,19.40
2022-09-10T23:10:20.986Z,19.40
2022-09-10T23:12:22.500Z,19.45
2022-09-10T23:14:23.989Z,19.45
2022-09-10T23:16:27.076Z,19.45
2022-09-10T23:18:29.954Z,19.41
2022-09-10T23:20:32.516Z,19.43
2022-09-10T23:22:34.059Z,19.39
2022-09-10T23:24:35.585Z,19.36
2022-09-10T23:26:37.104Z,19.29
2022-09-10T23:28:39.291Z,19.22
2022-09-10T23:30:40.892Z,19.24
2022-09-10T23:32:42.373Z,19.21
2022-09-10T23:34:45.236Z,19.25
2022-09-10T23:36:48.191Z,19.22
2022-09-10T23:38:50.141Z,19.21
2022-09-10T23:40:51.719Z,19.17
2022-09-10T23:42:53.240Z,19.13
2022-09-10T23:44:54.739Z,19.06
2022-09-10T23:46:56.329Z,19.06
2022-09-10T23:48:57.926Z,19.08
2022-09-10T23:51:00.810Z,18.99
2022-09-10T23:53:02.343Z,18.96
2022-09-10T23:55:04.225Z,19.08
2022-09-10T23:57:05.829Z,19.10
2022-09-10T23:59:07.927Z,19.14
